createdAt,value
2023-05-20T00:03:39.200Z,9.88
2023-05-20T00:08:41.369Z,9.88
2023-05-20T00:13:43.454Z,-145.46
2023-05-20T00:18:46.923Z,9.88
2023-05-20T00:23:48.994Z,9.88
2023-05-20T00:28:50.984Z,9.89
2023-05-20T00:33:54.350Z,9.89
2023-05-20T00:38:56.338Z,9.89
2023-05-20T00:43:58.369Z,-145.47
2023-05-20T00:49:01.964Z,-145.47
2023-05-20T00:54:04.144Z,-145.47
2023-05-20T00:59:06.333Z,-145.47
2023-05-20T01:04:09.847Z,-145.47
2023-05-20T01:09:13.108Z,-145.47
2023-05-20T01:14:19.019Z,-145.47
2023-05-20T01:19:36.106Z,-145.47
2023-05-20T01:24:41.287Z,-145.47
2023-05-20T01:29:44.191Z,-145.47
2023-05-20T01:34:48.749Z,-145.47
2023-05-20T01:39:53.873Z,-145.47
2023-05-20T01:44:55.970Z,-145.47
2023-05-20T01:49:58.055Z,-145.47
2023-05-20T01:55:01.564Z,-145.47
2023-05-20T02:00:04.215Z,-145.47
2023-05-20T02:05:06.806Z,-145.47
2023-05-20T02:10:11.022Z,-145.47
2023-05-20T02:15:13.265Z,-145.47
2023-05-20T02:20:16.295Z,-145.47
2023-05-20T02:25:19.611Z,-145.47
2023-05-20T02:30:21.643Z,-145.47
2023-05-20T02:35:23.734Z,-145.47
2023-05-20T02:40:27.122Z,-145.47
2023-05-20T02:45:29.276Z,-145.47
2023-05-20T02:50:31.322Z,-145.47
2023-05-20T02:55:36.063Z,-145.47
2023-05-20T03:00:40.995Z,-145.47
2023-05-20T03:05:46.114Z,-145.47
2023-05-20T03:10:49.613Z,-145.47
2023-05-20T03:15:51.846Z,-145.47
2023-05-20T03:20:53.857Z,-145.47
2023-05-20T03:25:57.194Z,-145.47
2023-05-20T03:30:59.220Z,-145.47
2023-05-20T03:36:01.284Z,-145.47
2023-05-20T03:41:04.649Z,-145.47
2023-05-20T03:46:06.657Z,-145.47
2023-05-20T03:51:08.665Z,-145.47
2023-05-20T03:56:11.967Z,-145.47
2023-05-20T04:01:14.374Z,-145.47
2023-05-20T04:06:16.394Z,-145.47
2023-05-20T04:11:19.716Z,-145.47
2023-05-20T04:16:21.883Z,-145.47
2023-05-20T04:21:23.937Z,-145.47
2023-05-20T04:26:27.318Z,-145.47
2023-05-20T04:31:29.515Z,-145.47
2023-05-20T04:36:31.540Z,-145.47
2023-05-20T04:41:36.452Z,-145.47
2023-05-20T04:46:39.945Z,-145.47
2023-05-20T04:51:43.785Z,-145.47
2023-05-20T04:56:47.337Z,-145.47
2023-05-20T05:01:49.420Z,-145.47
2023-05-20T05:06:51.666Z,-145.47
2023-05-20T05:11:55.522Z,-145.47
2023-05-20T05:16:58.067Z,-145.47
2023-05-20T05:22:00.135Z,-145.47
2023-05-20T05:27:03.867Z,-145.47
2023-05-20T05:32:06.421Z,-145.47
2023-05-20T05:37:08.462Z,-145.47
2023-05-20T05:42:11.817Z,-145.47
2023-05-20T05:47:14.005Z,-145.47
2023-05-20T05:52:16.109Z,-145.47
2023-05-20T05:57:19.475Z,-145.47
2023-05-20T06:02:22.856Z,-145.47
2023-05-20T06:07:27.879Z,-145.47
2023-05-20T06:12:32.005Z,-145.47
2023-05-20T06:17:34.281Z,-145.47
2023-05-20T06:22:36.837Z,-145.47
2023-05-20T06:27:40.524Z,-145.47
2023-05-20T06:32:42.556Z,-145.47
2023-05-20T06:37:44.665Z,-145.47
2023-05-20T06:42:48.181Z,-145.47
2023-05-20T06:47:50.324Z,-145.47
2023-05-20T06:52:52.342Z,-145.47
2023-05-20T06:57:55.762Z,-145.47
2023-05-20T07:02:57.908Z,-145.47
2023-05-20T07:07:59.987Z,-145.47
2023-05-20T07:13:04.835Z,-145.47
2023-05-20T07:18:07.520Z,-145.47
2023-05-20T07:23:09.619Z,-145.47
2023-05-20T07:28:15.870Z,-145.47
2023-05-20T07:33:17.971Z,-145.47
2023-05-20T07:38:20.429Z,-145.47
2023-05-20T07:43:24.017Z,-145.47
2023-05-20T07:48:26.112Z,-145.47
2023-05-20T07:53:28.263Z,-145.47
2023-05-20T07:58:32.072Z,-145.47
2023-05-20T08:03:34.179Z,-145.47
2023-05-20T08:08:36.330Z,-145.47
2023-05-20T08:13:40.149Z,-145.47
2023-05-20T08:18:42.245Z,-145.47
2023-05-20T08:23:44.361Z,-145.47
2023-05-20T08:28:48.451Z,-145.47
2023-05-20T08:33:50.825Z,-145.47
2023-05-20T08:38:52.835Z,-145.47
2023-05-20T08:43:57.425Z,-145.47
2023-05-20T08:48:59.547Z,-145.47
2023-05-20T08:54:02.429Z,-145.47
2023-05-20T08:59:06.602Z,-145.47
2023-05-20T09:04:08.747Z,-145.47
2023-05-20T09:09:11.882Z,-145.47
2023-05-20T09:14:15.267Z,-145.47
2023-05-20T09:19:17.346Z,-145.47
2023-05-20T09:24:22.796Z,-145.47
2023-05-20T09:29:26.360Z,-145.47
2023-05-20T09:34:29.182Z,-145.47
2023-05-20T09:39:36.986Z,-145.47
2023-05-20T09:44:42.795Z,-145.47
2023-05-20T09:49:46.646Z,-145.47
2023-05-20T09:54:50.032Z,-145.47
2023-05-20T09:59:53.747Z,-145.47
2023-05-20T10:04:58.578Z,-145.47
2023-05-20T10:10:13.545Z,-145.47
2023-05-20T10:15:22.535Z,-145.47
2023-05-20T10:20:24.595Z,-145.47
2023-05-20T10:25:27.732Z,-145.47
2023-05-20T10:30:31.337Z,-145.47
2023-05-20T10:35:33.407Z,-145.47
2023-05-20T10:40:35.675Z,-145.47
2023-05-20T10:45:49.835Z,-145.47
2023-05-20T10:50:56.489Z,-145.47
2023-05-20T10:55:58.628Z,-145.47
2023-05-20T11:01:03.313Z,-145.47
2023-05-20T11:06:12.176Z,-145.47
2023-05-20T11:11:15.449Z,-145.47
2023-05-20T11:16:20.407Z,-145.47
2023-05-20T11:21:22.480Z,-145.47
2023-05-20T11:26:24.511Z,-145.47
2023-05-20T11:31:28.182Z,-145.47
2023-05-20T11:36:30.920Z,-145.47
2023-05-20T11:41:33.656Z,-145.47
2023-05-20T11:46:41.753Z,-145.47
2023-05-20T11:51:44.844Z,-145.47
2023-05-20T11:56:46.924Z,-145.47
2023-05-20T12:01:50.369Z,-145.47
2023-05-20T12:06:53.240Z,-145.47
2023-05-20T12:11:56.711Z,10.46
2023-05-20T12:17:00.092Z,10.98
2023-05-20T12:22:02.535Z,11.47
2023-05-20T12:27:06.345Z,11.89
2023-05-20T12:32:09.733Z,12.29
2023-05-20T12:37:11.810Z,12.64
2023-05-20T12:42:13.840Z,13.00
2023-05-20T12:47:17.300Z,13.35
2023-05-20T12:52:22.839Z,13.68
2023-05-20T12:57:26.617Z,14.00
2023-05-20T13:02:30.496Z,14.33
2023-05-20T13:07:32.917Z,14.61
2023-05-20T13:12:35.341Z,14.88
2023-05-20T13:17:38.756Z,15.18
2023-05-20T13:22:40.814Z,-145.47
2023-05-20T13:27:42.721Z,15.47
2023-05-20T13:32:46.344Z,15.71
2023-05-20T13:37:48.692Z,15.94
2023-05-20T13:42:50.810Z,16.14
2023-05-20T13:47:54.310Z,16.35
2023-05-20T13:52:56.372Z,16.54
2023-05-20T13:57:58.239Z,16.68
2023-05-20T14:03:04.596Z,16.81
2023-05-20T14:08:06.773Z,16.91
2023-05-20T14:13:10.567Z,17.01
2023-05-20T14:18:13.890Z,17.11
2023-05-20T14:23:15.956Z,17.24
2023-05-20T14:28:17.852Z,17.40
2023-05-20T14:33:21.186Z,17.55
2023-05-20T14:38:23.267Z,17.70
2023-05-20T14:43:25.864Z,17.85
2023-05-20T14:48:29.230Z,17.95
2023-05-20T14:53:31.388Z,18.03
2023-05-20T14:58:33.412Z,18.10
2023-05-20T15:03:36.929Z,18.16
2023-05-20T15:08:38.953Z,18.23
2023-05-20T15:13:40.922Z,18.31
2023-05-20T15:18:44.341Z,18.37
2023-05-20T15:23:46.407Z,18.43
2023-05-20T15:28:51.209Z,18.48
2023-05-20T15:33:55.847Z,18.53
2023-05-20T15:38:58.033Z,18.61
2023-05-20T15:43:59.882Z,18.69
2023-05-20T15:49:03.251Z,18.76
2023-05-20T15:54:05.332Z,18.82
2023-05-20T15:59:07.384Z,18.90
2023-05-20T16:04:10.725Z,18.97
2023-05-20T16:09:12.831Z,19.02
2023-05-20T16:14:14.725Z,19.08
2023-05-20T16:19:18.163Z,19.22
2023-05-20T16:24:20.470Z,19.39
2023-05-20T16:29:22.965Z,19.59
2023-05-20T16:34:27.734Z,19.79
2023-05-20T16:39:29.801Z,19.99
2023-05-20T16:44:31.791Z,20.20
2023-05-20T16:49:35.752Z,20.36
2023-05-20T16:54:38.108Z,20.49
2023-05-20T16:59:40.709Z,20.54
2023-05-20T17:04:44.213Z,20.56
2023-05-20T17:09:46.372Z,20.53
2023-05-20T17:14:48.433Z,20.55
2023-05-20T17:19:51.918Z,20.60
2023-05-20T17:24:54.040Z,20.68
2023-05-20T17:29:56.275Z,20.73
2023-05-20T17:34:59.920Z,20.74
2023-05-20T17:40:02.264Z,20.70
2023-05-20T17:45:05.442Z,20.66
2023-05-20T17:50:10.191Z,20.59
2023-05-20T17:55:13.026Z,20.51
2023-05-20T18:00:15.713Z,20.41
2023-05-20T18:05:19.110Z,20.30
2023-05-20T18:10:21.580Z,20.16
2023-05-20T18:15:23.854Z,20.01
2023-05-20T18:20:27.212Z,19.84
2023-05-20T18:25:29.235Z,19.66
2023-05-20T18:30:31.304Z,19.49
2023-05-20T18:35:34.747Z,19.31
2023-05-20T18:40:36.968Z,19.14
2023-05-20T18:45:39.913Z,18.96
2023-05-20T18:50:43.361Z,18.78
2023-05-20T18:55:46.400Z,18.60
2023-05-20T19:00:48.548Z,18.43
2023-05-20T19:05:52.573Z,18.28
2023-05-20T19:10:54.701Z,-145.47
2023-05-20T19:15:58.010Z,18.28
2023-05-20T19:21:01.385Z,18.12
2023-05-20T19:26:03.561Z,17.97
2023-05-20T19:31:06.001Z,17.82
2023-05-20T19:36:09.569Z,17.69
2023-05-20T19:41:12.729Z,17.69
2023-05-20T19:46:16.012Z,17.69
2023-05-20T19:51:19.493Z,17.59
2023-05-20T19:56:23.942Z,17.50
2023-05-20T20:01:26.600Z,17.43
2023-05-20T20:06:30.026Z,17.38
2023-05-20T20:11:32.116Z,17.34
2023-05-20T20:16:34.729Z,17.30
2023-05-20T20:21:40.197Z,17.27
2023-05-20T20:26:42.277Z,17.23
2023-05-20T20:31:44.301Z,17.19
2023-05-20T20:36:47.947Z,17.12
2023-05-20T20:41:50.420Z,17.05
2023-05-20T20:46:54.793Z,16.97
2023-05-20T20:51:58.372Z,16.89
2023-05-20T20:57:02.598Z,16.83
2023-05-20T21:02:05.082Z,16.78
2023-05-20T21:07:08.343Z,16.75
2023-05-20T21:12:10.924Z,16.71
2023-05-20T21:17:13.100Z,16.65
2023-05-20T21:22:16.465Z,16.56
2023-05-20T21:27:18.530Z,16.46
2023-05-20T21:32:20.603Z,16.46
2023-05-20T21:37:24.061Z,16.33
2023-05-20T21:42:26.338Z,16.20
2023-05-20T21:47:28.378Z,16.07
2023-05-20T21:52:31.788Z,15.94
2023-05-20T21:57:33.788Z,15.83
2023-05-20T22:02:36.214Z,15.73
2023-05-20T22:07:42.057Z,15.63
2023-05-20T22:12:44.680Z,15.55
2023-05-20T22:17:47.461Z,15.47
2023-05-20T22:22:51.047Z,15.38
2023-05-20T22:27:53.091Z,15.28
2023-05-20T22:32:56.195Z,15.19
2023-05-20T22:38:00.303Z,15.10
2023-05-20T22:43:02.392Z,15.01
2023-05-20T22:48:04.783Z,-145.47
2023-05-20T22:53:08.220Z,-145.47
2023-05-20T22:58:10.280Z,14.89
2023-05-20T23:03:12.542Z,14.79
2023-05-20T23:08:16.054Z,-145.47
2023-05-20T23:13:18.043Z,-145.47
2023-05-20T23:18:20.039Z,-145.47
2023-05-20T23:23:30.315Z,-145.47
2023-05-20T23:28:33.440Z,-145.47
2023-05-20T23:34:16.552Z,-145.47
2023-05-20T23:40:18.700Z,-145.47
2023-05-20T23:46:19.264Z,-145.47
2023-05-20T23:51:21.364Z,-145.47
2023-05-20T23:56:24.712Z,-145.47
